Time;durP1;ratioP1;P1;durP2;ratioP2;P2;SDS_P1;SDS_P2;PMS_P1;PMS_P2;Temp;Humidity;BMP_temperature;BMP_pressure;BME280_temperature;BME280_humidity;BME280_pressure;Samples;Min_cycle;Max_cycle;Signal;HPM_P1;HPM_P2
2022/04/28 00:00:48;;;;;;;6.67;3.20;;;6.00;99.90;;;;;;5053641;28;20558;-84
2022/04/28 00:03:14;;;;;;;11.17;4.97;;;6.00;99.90;;;;;;5053672;28;20413;-84
2022/04/28 00:05:40;;;;;;;4.03;2.50;;;5.90;99.90;;;;;;5053519;28;20253;-85
2022/04/28 00:08:06;;;;;;;8.00;3.40;;;5.80;99.90;;;;;;5053233;28;20518;-84
2022/04/28 00:10:32;;;;;;;11.07;5.07;;;5.80;99.90;;;;;;5053470;28;20169;-85
2022/04/28 00:13:00;;;;;;;4.70;3.17;;;5.70;99.90;;;;;;5035460;28;20804;-84
2022/04/28 00:15:26;;;;;;;9.40;2.97;;;5.80;99.90;;;;;;5035620;28;20417;-85
2022/04/28 00:17:52;;;;;;;8.13;3.63;;;5.80;99.90;;;;;;5053424;28;20977;-85
2022/04/28 00:20:17;;;;;;;9.30;4.17;;;5.70;99.90;;;;;;5053325;28;20400;-85
2022/04/28 00:22:43;;;;;;;4.83;3.10;;;5.70;99.90;;;;;;5052940;28;20656;-84
2022/04/28 00:25:09;;;;;;;6.73;3.90;;;5.70;99.90;;;;;;5053312;28;20174;-84
2022/04/28 00:27:35;;;;;;;6.80;2.80;;;5.70;99.90;;;;;;5053200;28;20239;-85
2022/04/28 00:30:01;;;;;;;6.27;3.40;;;5.70;99.90;;;;;;5053249;28;20625;-85
2022/04/28 00:32:26;;;;;;;5.50;3.13;;;5.60;99.90;;;;;;5053224;28;20408;-86
2022/04/28 00:34:52;;;;;;;8.40;3.17;;;5.50;99.90;;;;;;5052657;28;20910;-86
2022/04/28 00:37:18;;;;;;;4.90;3.77;;;5.60;99.90;;;;;;5052755;28;20417;-84
2022/04/28 00:39:45;;;;;;;10.60;3.33;;;5.60;99.90;;;;;;5035326;28;20173;-85
2022/04/28 00:42:12;;;;;;;8.23;3.00;;;5.60;99.90;;;;;;5035174;28;20939;-84
2022/04/28 00:44:38;;;;;;;6.07;3.07;;;5.60;99.90;;;;;;5053127;28;20803;-85
2022/04/28 00:47:05;;;;;;;5.67;3.13;;;5.50;99.90;;;;;;5052999;28;20464;-85
2022/04/28 00:52:16;;;;;;;6.90;3.00;;;5.30;99.90;;;;;;5052708;28;20906;-84
2022/04/28 00:54:43;;;;;;;7.07;2.83;;;5.20;99.90;;;;;;5052975;28;20409;-84
2022/04/28 00:57:10;;;;;;;4.90;2.80;;;5.20;99.90;;;;;;5052845;28;20771;-84
2022/04/28 00:59:38;;;;;;;8.07;3.60;;;5.10;99.90;;;;;;5052878;28;20779;-83
2022/04/28 01:02:04;;;;;;;8.73;4.27;;;5.10;99.90;;;;;;5052793;28;20517;-83
2022/04/28 01:04:30;;;;;;;7.17;4.00;;;5.10;99.90;;;;;;5052750;28;20409;-83
2022/04/28 01:06:56;;;;;;;7.30;4.17;;;5.10;99.90;;;;;;5052201;28;20467;-83
2022/04/28 01:09:21;;;;;;;8.87;3.30;;;5.00;99.90;;;;;;5052628;28;20166;-84
2022/04/28 01:11:48;;;;;;;8.00;3.67;;;5.10;99.90;;;;;;5052447;28;20213;-84
2022/04/28 01:14:13;;;;;;;7.40;3.17;;;5.10;99.90;;;;;;5052663;28;20189;-84
2022/04/28 01:16:39;;;;;;;6.17;3.47;;;5.00;99.90;;;;;;5052568;28;20413;-84
2022/04/28 01:19:04;;;;;;;6.77;3.63;;;5.00;99.90;;;;;;5034853;28;20216;-84
2022/04/28 01:21:30;;;;;;;10.23;4.57;;;5.00;99.90;;;;;;5053127;28;20174;-83
2022/04/28 01:23:56;;;;;;;5.67;3.60;;;5.00;99.90;;;;;;5052208;28;20185;-83
2022/04/28 01:26:23;;;;;;;5.47;3.87;;;5.00;99.90;;;;;;5055091;28;20229;-83
2022/04/28 01:28:49;;;;;;;6.17;3.77;;;5.00;99.90;;;;;;5052524;28;20169;-83
2022/04/28 01:31:14;;;;;;;6.90;3.87;;;4.90;99.90;;;;;;5052443;28;20424;-83
2022/04/28 01:33:40;;;;;;;7.93;4.30;;;4.90;99.90;;;;;;5052420;28;20550;-84
2022/04/28 01:36:06;;;;;;;8.53;4.30;;;4.90;99.90;;;;;;5052462;28;20495;-83
2022/04/28 01:38:32;;;;;;;7.13;3.67;;;4.80;99.90;;;;;;5052189;28;20653;-83
2022/04/28 01:40:58;;;;;;;4.73;3.43;;;4.70;99.90;;;;;;5052425;28;20162;-83
2022/04/28 01:43:23;;;;;;;9.33;4.60;;;4.70;99.90;;;;;;5034519;28;20427;-84
2022/04/28 01:45:54;;;;;;;8.90;3.97;;;4.70;99.90;;;;;;5046217;28;20197;-82
2022/04/28 01:48:20;;;;;;;12.73;4.60;;;4.70;99.90;;;;;;5064872;28;20172;-84
2022/04/28 01:54:57;;;;;;;5.53;4.17;;;4.80;99.90;;;;;;5038551;28;20469;-84
2022/04/28 01:56:20;;;;;;;10.90;4.17;;;4.80;99.90;;;;;;5036473;28;20479;-83
2022/04/28 01:58:45;;;;;;;10.77;5.33;;;4.80;99.90;;;;;;5055936;28;20483;-84
2022/04/28 02:01:11;;;;;;;8.97;5.43;;;4.70;99.90;;;;;;5055903;28;20174;-84
2022/04/28 02:03:36;;;;;;;9.60;5.07;;;4.70;99.90;;;;;;5055870;28;20174;-83
2022/04/28 02:06:02;;;;;;;7.90;5.60;;;4.60;99.90;;;;;;5056189;28;20237;-84
2022/04/28 02:08:28;;;;;;;11.57;4.40;;;4.60;99.90;;;;;;5037819;28;20178;-84
2022/04/28 02:10:53;;;;;;;5.30;4.80;;;4.60;99.90;;;;;;5056175;28;20178;-85
2022/04/28 02:13:19;;;;;;;8.30;5.37;;;4.50;99.90;;;;;;5043483;28;20229;-85
2022/04/28 02:15:45;;;;;;;6.67;5.30;;;4.50;99.90;;;;;;5057119;28;20174;-84
2022/04/28 02:18:11;;;;;;;14.67;5.57;;;4.40;99.90;;;;;;5055828;28;20477;-85
2022/04/28 02:20:37;;;;;;;8.27;5.40;;;4.40;99.90;;;;;;5037599;28;20460;-83
2022/04/28 02:23:03;;;;;;;6.90;4.80;;;4.40;99.90;;;;;;5037292;28;20178;-84
2022/04/28 02:25:28;;;;;;;10.07;5.87;;;4.40;99.90;;;;;;5055507;28;20181;-85
2022/04/28 02:27:54;;;;;;;13.97;6.47;;;4.30;99.90;;;;;;5055666;28;20488;-84
2022/04/28 02:30:19;;;;;;;7.07;5.63;;;4.30;99.90;;;;;;5055659;28;20165;-84
2022/04/28 02:35:29;;;;;;;10.80;5.53;;;4.20;99.90;;;;;;5055514;28;20523;-83
2022/04/28 02:37:55;;;;;;;15.00;6.47;;;4.20;99.90;;;;;;5037216;28;20413;-84
2022/04/28 02:40:20;;;;;;;11.20;6.53;;;4.20;99.90;;;;;;5037479;28;20170;-84
2022/04/28 02:42:46;;;;;;;9.03;6.10;;;4.10;99.90;;;;;;5037379;28;20177;-83
2022/04/28 02:45:12;;;;;;;8.10;5.53;;;4.10;99.90;;;;;;5055105;28;20165;-84
2022/04/28 02:47:38;;;;;;;12.03;6.10;;;4.00;99.90;;;;;;5055093;28;20198;-85
2022/04/28 02:50:05;;;;;;;15.00;7.97;;;4.00;99.90;;;;;;5037350;28;20424;-85
2022/04/28 02:52:31;;;;;;;8.73;6.57;;;4.00;99.90;;;;;;5054788;28;20204;-85
2022/04/28 02:54:57;;;;;;;11.73;6.17;;;3.90;99.90;;;;;;5054987;28;20412;-85
2022/04/28 02:57:22;;;;;;;13.50;6.53;;;3.90;99.90;;;;;;5054960;28;20169;-85
2022/04/28 02:59:48;;;;;;;9.80;6.97;;;4.00;99.90;;;;;;5036778;28;20174;-85
2022/04/28 03:02:14;;;;;;;9.60;6.10;;;4.00;99.90;;;;;;5054816;28;20181;-85
2022/04/28 03:04:39;;;;;;;8.70;6.43;;;4.00;99.90;;;;;;5054887;28;20177;-85
2022/04/28 03:12:35;;;;;;;9.87;5.23;;;3.80;99.90;;;;;;5054731;28;20479;-84
2022/04/28 03:15:03;;;;;;;10.30;6.60;;;3.80;99.90;;;;;;5054476;28;20463;-85
2022/04/28 03:17:29;;;;;;;9.20;5.73;;;3.70;99.90;;;;;;5036734;28;20909;-84
2022/04/28 03:19:54;;;;;;;11.80;7.23;;;3.70;99.90;;;;;;5054575;28;20440;-85
2022/04/28 03:22:20;;;;;;;14.97;7.83;;;3.70;99.90;;;;;;5054199;28;20252;-85
2022/04/28 03:24:46;;;;;;;11.53;7.13;;;3.80;99.90;;;;;;5054533;28;20173;-84
2022/04/28 03:27:11;;;;;;;11.83;6.40;;;3.80;99.90;;;;;;5054281;28;20469;-83
2022/04/28 03:29:37;;;;;;;16.10;8.00;;;3.70;99.90;;;;;;5054320;28;20177;-85
2022/04/28 03:32:03;;;;;;;10.33;6.17;;;3.60;99.90;;;;;;5054559;28;20621;-84
2022/04/28 03:34:29;;;;;;;14.30;7.93;;;3.50;99.90;;;;;;5054884;28;20177;-84
2022/04/28 03:36:54;;;;;;;11.00;7.47;;;3.50;99.90;;;;;;5053767;28;20420;-85
2022/04/28 03:39:20;;;;;;;13.43;7.83;;;3.40;99.90;;;;;;5053939;28;20165;-85
2022/04/28 03:41:46;;;;;;;14.40;6.53;;;3.40;99.90;;;;;;5036069;28;20181;-84
2022/04/28 03:44:11;;;;;;;8.80;5.83;;;3.40;99.90;;;;;;5053982;28;20531;-84
2022/04/28 03:46:37;;;;;;;9.53;7.20;;;3.40;99.90;;;;;;5053784;28;20221;-85
2022/04/28 03:49:03;;;;;;;8.53;7.17;;;3.40;99.90;;;;;;5053831;28;20181;-85
2022/04/28 03:51:29;;;;;;;13.97;7.00;;;3.50;99.90;;;;;;5053401;28;20166;-86
2022/04/28 03:53:59;;;;;;;10.03;8.13;;;3.50;99.90;;;;;;5053820;28;20419;-85
2022/04/28 03:56:30;;;;;;;14.73;8.50;;;3.40;99.90;;;;;;5053562;28;20259;-85
2022/04/28 03:58:56;;;;;;;8.60;6.47;;;3.40;99.90;;;;;;5053697;28;20408;-85
2022/04/28 04:01:23;;;;;;;15.77;7.10;;;3.40;99.90;;;;;;5053626;28;20511;-85
2022/04/28 04:03:48;;;;;;;10.80;6.60;;;3.40;99.90;;;;;;5053624;28;20434;-85
2022/04/28 04:06:14;;;;;;;13.73;7.87;;;3.40;99.90;;;;;;5053533;28;20967;-85
2022/04/28 04:08:39;;;;;;;12.30;7.37;;;3.40;99.90;;;;;;5053130;28;20169;-85
2022/04/28 04:11:05;;;;;;;14.47;7.37;;;3.40;99.90;;;;;;5052808;28;20216;-83
2022/04/28 04:13:30;;;;;;;12.53;6.93;;;3.40;99.90;;;;;;5053394;28;20217;-86
2022/04/28 04:15:56;;;;;;;16.10;8.37;;;3.40;99.90;;;;;;5053441;28;20628;-85
2022/04/28 04:18:21;;;;;;;10.93;6.67;;;3.50;99.90;;;;;;5053378;28;20197;-86
2022/04/28 04:20:47;;;;;;;10.70;7.47;;;3.50;99.90;;;;;;5053284;28;20205;-86
2022/04/28 04:23:12;;;;;;;18.30;7.30;;;3.50;99.90;;;;;;5052944;28;20640;-86
2022/04/28 04:25:38;;;;;;;9.67;7.63;;;3.50;99.90;;;;;;5053151;28;20170;-86
2022/04/28 04:28:04;;;;;;;10.60;7.40;;;3.50;99.90;;;;;;5053275;28;20633;-85
2022/04/28 04:33:14;;;;;;;11.03;7.60;;;3.60;99.90;;;;;;5053455;28;20427;-85
2022/04/28 04:35:39;;;;;;;12.47;7.60;;;3.60;99.90;;;;;;5053132;28;20424;-86
2022/04/28 04:38:05;;;;;;;14.03;6.97;;;3.60;99.90;;;;;;5052908;28;20181;-87
2022/04/28 04:40:30;;;;;;;12.93;7.07;;;3.70;99.90;;;;;;5059798;28;20229;-88
2022/04/28 04:42:56;;;;;;;12.43;8.37;;;3.80;99.90;;;;;;5053390;28;20252;-87
2022/04/28 04:45:23;;;;;;;12.60;6.50;;;3.90;99.90;;;;;;5053024;28;20239;-86
2022/04/28 04:47:48;;;;;;;12.77;8.60;;;3.90;99.90;;;;;;5053019;28;20165;-87
2022/04/28 04:50:14;;;;;;;13.23;7.27;;;4.00;99.90;;;;;;5052999;28;20494;-86
2022/04/28 04:52:39;;;;;;;16.40;9.23;;;4.00;99.90;;;;;;5052573;28;20263;-86
2022/04/28 04:55:06;;;;;;;10.47;6.47;;;4.00;99.90;;;;;;5052973;28;20209;-86
2022/04/28 04:57:31;;;;;;;13.13;8.30;;;4.20;99.90;;;;;;5052891;28;20169;-86
2022/04/28 04:59:58;;;;;;;12.87;7.83;;;4.30;99.90;;;;;;5052875;28;20768;-86
2022/04/28 05:02:24;;;;;;;15.27;8.67;;;4.40;99.90;;;;;;5052792;28;20558;-86
2022/04/28 05:04:51;;;;;;;10.80;7.63;;;4.50;99.90;;;;;;5052737;28;20414;-86
2022/04/28 05:07:16;;;;;;;13.13;8.07;;;4.60;99.90;;;;;;5052401;28;21032;-86
2022/04/28 05:09:42;;;;;;;19.03;11.77;;;4.80;99.90;;;;;;5052748;28;20412;-85
2022/04/28 05:12:08;;;;;;;13.40;8.70;;;5.00;99.90;;;;;;5052668;28;20221;-86
2022/04/28 05:14:34;;;;;;;18.43;9.80;;;5.20;99.90;;;;;;5052859;28;20174;-85
2022/04/28 05:17:01;;;;;;;21.07;13.90;;;5.30;99.90;;;;;;5034751;28;20431;-84
2022/04/28 05:19:27;;;;;;;19.03;11.90;;;7.50;99.90;;;;;;5051574;28;20188;-86
2022/04/28 05:21:54;;;;;;;18.17;10.60;;;8.80;99.90;;;;;;5034622;28;20783;-86
2022/04/28 05:24:20;;;;;;;15.90;8.40;;;7.30;99.90;;;;;;5056010;28;21162;-85
2022/04/28 05:26:46;;;;;;;13.70;8.60;;;7.00;99.90;;;;;;5046891;28;20484;-86
2022/04/28 05:29:12;;;;;;;17.70;9.80;;;7.10;99.90;;;;;;5044912;28;20179;-85
2022/04/28 05:31:37;;;;;;;10.67;7.83;;;7.20;99.90;;;;;;5045123;28;20781;-86
2022/04/28 05:34:03;;;;;;;14.00;8.17;;;7.50;99.90;;;;;;5035116;28;20267;-85
2022/04/28 05:36:29;;;;;;;13.73;8.13;;;7.90;99.90;;;;;;5045786;28;20183;-86
2022/04/28 05:38:57;;;;;;;12.60;8.70;;;8.00;51.60;;;;;;5046774;28;20184;-85
2022/04/28 05:41:24;;;;;;;11.60;8.00;;;8.20;67.80;;;;;;5047101;28;20409;-86
2022/04/28 05:46:34;;;;;;;13.17;7.93;;;8.80;1.00;;;;;;5036204;28;20481;-86
2022/04/28 05:49:00;;;;;;;9.83;6.57;;;9.20;1.00;;;;;;5036248;28;20491;-86
2022/04/28 05:51:26;;;;;;;13.43;7.33;;;9.30;1.00;;;;;;5036053;28;20639;-87
2022/04/28 05:53:51;;;;;;;14.13;7.47;;;9.60;1.00;;;;;;5035922;28;20970;-85
2022/04/28 05:56:17;;;;;;;9.93;5.80;;;10.00;1.00;;;;;;5036172;28;20168;-87
2022/04/28 05:58:42;;;;;;;11.97;7.00;;;10.50;1.00;;;;;;5018126;28;20643;-86
2022/04/28 06:01:08;;;;;;;11.80;6.97;;;10.90;99.90;;;;;;5035896;28;20176;-84
2022/04/28 06:03:33;;;;;;;14.37;6.47;;;11.50;1.00;;;;;;5036066;28;20179;-83
2022/04/28 06:05:59;;;;;;;12.17;6.63;;;12.40;99.90;;;;;;5035640;28;20205;-86
2022/04/28 06:08:24;;;;;;;11.80;7.10;;;12.90;99.90;;;;;;5035184;28;20233;-85
2022/04/28 06:10:50;;;;;;;13.77;7.27;;;13.50;99.90;;;;;;5035254;28;20643;-83
2022/04/28 06:13:15;;;;;;;13.13;7.43;;;13.90;99.90;;;;;;5035249;28;20694;-84
2022/04/28 06:15:41;;;;;;;16.80;7.10;;;14.80;99.90;;;;;;5035672;28;20607;-85
2022/04/28 06:18:06;;;;;;;10.73;6.67;;;15.90;78.20;;;;;;5035592;28;20164;-86
2022/04/28 06:20:32;;;;;;;8.70;6.00;;;16.00;39.30;;;;;;5035519;28;20203;-88
2022/04/28 06:22:57;;;;;;;11.30;6.77;;;16.10;18.70;;;;;;5035297;28;20171;-86
2022/04/28 06:25:24;;;;;;;9.73;6.60;;;16.30;1.00;;;;;;5035541;28;20633;-85
2022/04/28 06:27:50;;;;;;;10.50;6.10;;;16.70;1.00;;;;;;5035292;28;20192;-86
2022/04/28 06:30:16;;;;;;;10.63;6.37;;;17.00;1.00;;;;;;5035416;28;20449;-86
2022/04/28 06:32:41;;;;;;;11.17;6.73;;;17.10;1.00;;;;;;5034899;28;20420;-86
2022/04/28 06:35:08;;;;;;;10.30;5.53;;;17.30;1.00;;;;;;5035200;28;20197;-86
2022/04/28 06:37:34;;;;;;;9.93;5.57;;;17.30;1.00;;;;;;5035073;28;20182;-87
2022/04/28 06:39:59;;;;;;;12.43;6.63;;;17.30;1.00;;;;;;5035260;28;20433;-87
2022/04/28 06:42:25;;;;;;;13.47;5.73;;;17.70;1.00;;;;;;5036140;28;20183;-87
2022/04/28 06:44:50;;;;;;;7.47;4.30;;;17.80;1.00;;;;;;5035283;28;20174;-87
2022/04/28 06:47:16;;;;;;;9.17;5.03;;;18.40;1.00;;;;;;5034568;28;20669;-84
2022/04/28 06:49:41;;;;;;;9.70;5.00;;;18.70;1.00;;;;;;5034746;28;20171;-86
2022/04/28 06:52:07;;;;;;;6.30;4.30;;;18.50;1.00;;;;;;5034691;28;20186;-85
2022/04/28 06:54:33;;;;;;;9.30;4.90;;;18.30;1.00;;;;;;5034818;28;20176;-86
2022/04/28 06:56:58;;;;;;;8.27;4.53;;;18.50;1.00;;;;;;5034997;28;20212;-86
2022/04/28 06:59:24;;;;;;;7.07;4.03;;;18.70;1.00;;;;;;5034828;28;20173;-88
2022/04/28 07:01:50;;;;;;;10.40;5.07;;;16.30;1.00;;;;;;5035010;28;20179;-86
2022/04/28 07:04:16;;;;;;;5.77;3.90;;;13.80;1.00;;;;;;5035062;28;20178;-88
2022/04/28 07:06:41;;;;;;;8.77;5.50;;;15.10;1.00;;;;;;5034389;28;20227;-86
2022/04/28 07:09:07;;;;;;;9.40;4.77;;;16.30;1.00;;;;;;5034809;28;20253;-87
2022/04/28 07:11:32;;;;;;;12.17;4.73;;;16.30;1.00;;;;;;5034433;28;20233;-86
2022/04/28 07:13:58;;;;;;;8.77;4.63;;;16.30;1.00;;;;;;5017026;28;20168;-88
2022/04/28 07:16:23;;;;;;;10.43;5.30;;;18.10;1.00;;;;;;5034768;28;20163;-87
2022/04/28 07:18:49;;;;;;;7.87;5.07;;;16.00;1.00;;;;;;5018406;28;20176;-91
2022/04/28 07:21:15;;;;;;;8.83;5.33;;;15.20;1.00;;;;;;5037724;28;20254;-90
2022/04/28 07:23:41;;;;;;;7.27;5.23;;;17.00;1.00;;;;;;5020379;28;20187;-91
2022/04/28 07:26:06;;;;;;;10.27;5.20;;;15.70;1.00;;;;;;5021418;28;20465;-89
2022/04/28 07:28:32;;;;;;;8.00;4.73;;;14.80;1.00;;;;;;5018476;28;20173;-89
2022/04/28 07:30:57;;;;;;;7.73;4.63;;;13.60;1.00;;;;;;5037021;28;20177;-91
2022/04/28 07:33:23;;;;;;;12.63;4.93;;;16.60;1.00;;;;;;5017514;28;20199;-82
2022/04/28 07:35:48;;;;;;;8.03;4.00;;;18.60;1.00;;;;;;5016291;28;20177;-82
2022/04/28 07:38:14;;;;;;;9.77;4.57;;;19.90;1.00;;;;;;5034203;28;20181;-82
2022/04/28 07:40:39;;;;;;;8.27;4.33;;;20.50;1.00;;;;;;5034020;28;20176;-84
2022/04/28 07:43:05;;;;;;;7.20;4.57;;;19.20;1.00;;;;;;5034172;28;20173;-89
2022/04/28 07:45:31;;;;;;;6.83;4.83;;;18.60;1.00;;;;;;5033427;28;20168;-84
2022/04/28 07:47:57;;;;;;;9.40;5.07;;;16.00;1.00;;;;;;5040175;28;20424;-84
2022/04/28 07:50:23;;;;;;;7.77;3.80;;;14.50;1.00;;;;;;5044430;28;20613;-87
2022/04/28 07:52:49;;;;;;;6.87;4.10;;;13.30;1.00;;;;;;5046341;28;20174;-88
2022/04/28 07:55:15;;;;;;;8.90;4.83;;;15.80;1.00;;;;;;5046574;28;20927;-83
2022/04/28 07:57:41;;;;;;;7.60;4.47;;;18.40;1.00;;;;;;5049051;28;20413;-90
2022/04/28 08:00:08;;;;;;;9.30;4.70;;;18.40;1.00;;;;;;5048440;28;20200;-87
2022/04/28 08:02:36;;;;;;;8.47;5.60;;;18.00;1.00;;;;;;5038711;28;20451;-83
2022/04/28 08:05:04;;;;;;;11.90;4.87;;;19.40;1.00;;;;;;5033724;28;20411;-84
2022/04/28 08:07:31;;;;;;;9.27;4.27;;;20.50;1.00;;;;;;5015340;28;20481;-84
2022/04/28 08:09:56;;;;;;;10.37;4.70;;;20.10;1.00;;;;;;5033006;28;20902;-84
2022/04/28 08:12:22;;;;;;;10.30;4.83;;;20.00;1.00;;;;;;5033401;28;20470;-87
2022/04/28 08:14:48;;;;;;;9.33;4.53;;;19.80;1.00;;;;;;5033705;28;20259;-85
2022/04/28 08:17:16;;;;;;;7.27;5.00;;;20.70;1.00;;;;;;5016014;28;20181;-83
2022/04/28 08:19:44;;;;;;;5.00;3.97;;;20.30;1.00;;;;;;5033865;28;20626;-83
2022/04/28 08:22:10;;;;;;;6.70;4.70;;;21.10;1.00;;;;;;5034674;28;20413;-83
2022/04/28 08:24:35;;;;;;;7.13;4.70;;;21.90;1.00;;;;;;5033915;28;20436;-84
2022/04/28 08:27:01;;;;;;;7.50;4.47;;;21.80;1.00;;;;;;5033746;28;20238;-83
2022/04/28 08:29:27;;;;;;;6.73;4.23;;;21.70;1.00;;;;;;5033745;28;20170;-84
2022/04/28 08:31:52;;;;;;;6.20;4.53;;;22.00;1.00;;;;;;5033940;28;20216;-84
2022/04/28 08:34:19;;;;;;;7.33;4.80;;;21.10;1.00;;;;;;5035566;28;20166;-83
2022/04/28 08:36:45;;;;;;;6.97;3.97;;;21.70;1.00;;;;;;5035970;28;20249;-81
2022/04/28 08:39:14;;;;;;;4.63;3.90;;;21.90;1.00;;;;;;5033197;28;20408;-83
2022/04/28 08:41:44;;;;;;;5.50;4.23;;;21.90;1.00;;;;;;5033319;28;20417;-83
2022/04/28 08:44:19;;;;;;;6.90;4.13;;;22.50;1.00;;;;;;5015587;28;20474;-83
2022/04/28 08:46:52;;;;;;;5.10;3.30;;;22.30;1.00;;;;;;5033149;28;20839;-82
2022/04/28 08:49:36;;;;;;;6.50;4.33;;;22.40;1.00;;;;;;5015479;28;20421;-83
2022/04/28 08:52:03;;;;;;;5.47;3.80;;;22.70;1.00;;;;;;5014928;28;20421;-83
2022/04/28 08:54:30;;;;;;;6.77;3.83;;;22.50;1.00;;;;;;5032752;28;20466;-84
2022/04/28 08:56:57;;;;;;;6.47;3.90;;;22.60;1.00;;;;;;5032541;28;20428;-84
2022/04/28 08:59:24;;;;;;;7.30;3.40;;;22.30;1.00;;;;;;5032858;28;20418;-85
2022/04/28 09:01:50;;;;;;;6.10;4.93;;;23.10;1.00;;;;;;5032838;28;20808;-84
2022/04/28 09:04:22;;;;;;;5.20;4.70;;;22.90;1.00;;;;;;5032888;28;20932;-83
2022/04/28 09:06:52;;;;;;;6.87;5.00;;;22.90;1.00;;;;;;5014919;28;20449;-83
2022/04/28 09:09:19;;;;;;;7.13;4.50;;;21.80;1.00;;;;;;5032910;28;20837;-84
2022/04/28 09:11:46;;;;;;;5.33;4.73;;;21.80;1.00;;;;;;5032664;28;20531;-83
2022/04/28 09:14:17;;;;;;;7.67;4.90;;;22.30;1.00;;;;;;5032713;28;20421;-83
2022/04/28 09:16:57;;;;;;;5.93;4.60;;;22.20;1.00;;;;;;5032903;28;20526;-83
2022/04/28 09:19:32;;;;;;;6.20;4.93;;;22.50;1.00;;;;;;5032792;28;20419;-84
2022/04/28 09:22:00;;;;;;;7.70;5.43;;;22.50;1.00;;;;;;5032409;28;20412;-82
2022/04/28 09:24:27;;;;;;;7.53;3.90;;;21.80;1.00;;;;;;5032713;28;20428;-84
2022/04/28 09:26:54;;;;;;;4.67;3.50;;;22.00;1.00;;;;;;5032662;28;20424;-80
2022/04/28 09:29:21;;;;;;;10.67;4.73;;;21.90;1.00;;;;;;5014960;28;20444;-82
2022/04/28 09:31:49;;;;;;;9.50;4.07;;;21.60;1.00;;;;;;5032653;28;20409;-84
2022/04/28 09:34:17;;;;;;;7.20;4.90;;;21.50;1.00;;;;;;5032462;28;20425;-83
2022/04/28 09:36:45;;;;;;;5.07;4.57;;;21.90;1.00;;;;;;5032255;28;20927;-83
2022/04/28 09:44:53;;;;;;;5.37;3.63;;;22.60;1.00;;;;;;5032722;28;20396;-82
2022/04/28 09:47:20;;;;;;;5.83;4.10;;;22.90;1.00;;;;;;5014606;28;20413;-85
2022/04/28 09:49:52;;;;;;;6.20;3.43;;;22.80;1.00;;;;;;5032398;28;20409;-81
2022/04/28 09:52:31;;;;;;;8.50;4.20;;;22.90;1.00;;;;;;5031979;28;20437;-83
2022/04/28 09:54:59;;;;;;;6.00;4.47;;;23.70;1.00;;;;;;5032320;28;20405;-82
2022/04/28 09:57:25;;;;;;;9.00;5.20;;;23.50;1.00;;;;;;5032111;28;20468;-82
2022/04/28 09:59:53;;;;;;;7.47;5.40;;;23.40;1.00;;;;;;5032210;28;20761;-82
2022/04/28 10:02:20;;;;;;;6.60;3.57;;;23.40;1.00;;;;;;5032157;28;20421;-87
2022/04/28 10:04:47;;;;;;;7.50;5.27;;;23.00;1.00;;;;;;5032460;28;20451;-84
2022/04/28 10:07:13;;;;;;;7.17;4.77;;;23.50;1.00;;;;;;5032190;28;20832;-87
2022/04/28 10:09:47;;;;;;;4.57;4.17;;;23.50;1.00;;;;;;5034956;28;20405;-87
2022/04/28 10:12:14;;;;;;;6.90;4.60;;;23.80;1.00;;;;;;5035953;28;20810;-84
2022/04/28 10:14:41;;;;;;;4.90;4.50;;;23.40;1.00;;;;;;5035850;28;20975;-84
2022/04/28 10:17:47;;;;;;;7.70;5.30;;;23.30;1.00;;;;;;5017428;28;20972;-82
2022/04/28 10:20:23;;;;;;;5.30;4.70;;;23.60;1.00;;;;;;5024123;28;20952;-85
2022/04/28 10:22:51;;;;;;;6.50;3.90;;;23.00;1.00;;;;;;5035730;28;20413;-82
2022/04/28 10:33:48;;;;;;;5.23;3.60;;;22.20;1.00;;;;;;5035768;28;20408;-86
2022/04/28 10:36:21;;;;;;;6.43;4.30;;;23.30;1.00;;;;;;5035117;28;20464;-83
2022/04/28 10:39:05;;;;;;;5.27;4.80;;;23.70;1.00;;;;;;5035557;28;20417;-83
2022/04/28 10:41:31;;;;;;;6.30;5.30;;;24.40;1.00;;;;;;5035386;28;20409;-88
2022/04/28 10:43:58;;;;;;;7.27;5.30;;;24.20;1.00;;;;;;5035361;28;20408;-90
2022/04/28 10:46:29;;;;;;;5.00;3.90;;;23.90;1.00;;;;;;5035498;28;20212;-88
2022/04/28 10:48:59;;;;;;;6.10;4.97;;;24.10;1.00;;;;;;5035947;28;20405;-87
2022/04/28 10:51:30;;;;;;;7.97;5.73;;;24.40;1.00;;;;;;5035309;28;20393;-83
2022/04/28 10:54:09;;;;;;;7.17;5.07;;;24.20;1.00;;;;;;5035218;28;20413;-87
2022/04/28 10:56:44;;;;;;;7.57;5.10;;;24.40;1.00;;;;;;5034841;28;20510;-81
2022/04/28 10:59:29;;;;;;;7.37;5.50;;;22.10;1.00;;;;;;5034953;28;20421;-84
2022/04/28 11:02:21;;;;;;;8.97;5.27;;;23.10;1.00;;;;;;5034951;28;20425;-84
2022/04/28 11:04:56;;;;;;;6.30;4.63;;;23.80;1.00;;;;;;5026519;28;20412;-86
2022/04/28 11:07:27;;;;;;;5.90;4.80;;;23.60;1.00;;;;;;5034961;28;20500;-88
2022/04/28 11:09:59;;;;;;;7.60;5.60;;;23.80;1.00;;;;;;5035416;28;20420;-88
2022/04/28 11:12:33;;;;;;;6.90;4.57;;;22.90;1.00;;;;;;5035214;28;20457;-87
2022/04/28 11:15:05;;;;;;;10.07;4.90;;;23.60;1.00;;;;;;5034787;28;20936;-88
2022/04/28 11:17:33;;;;;;;5.73;4.20;;;23.40;1.00;;;;;;5034733;28;20461;-90
2022/04/28 11:20:04;;;;;;;6.40;4.73;;;23.60;1.00;;;;;;5034714;28;20444;-86
2022/04/28 11:22:30;;;;;;;10.00;5.57;;;24.10;1.00;;;;;;5033219;28;20441;-88
2022/04/28 11:24:56;;;;;;;5.67;4.30;;;24.30;1.00;;;;;;5034140;28;20516;-88
2022/04/28 11:27:24;;;;;;;8.57;5.10;;;23.20;1.00;;;;;;5034274;28;20568;-84
2022/04/28 11:29:55;;;;;;;7.30;5.57;;;22.80;1.00;;;;;;5034420;28;20206;-86
2022/04/28 11:32:21;;;;;;;5.73;5.10;;;23.60;1.00;;;;;;5034378;28;20401;-85
2022/04/28 11:34:48;;;;;;;8.40;5.47;;;24.20;1.00;;;;;;5034265;28;20415;-84
2022/04/28 11:37:18;;;;;;;6.63;5.30;;;24.40;1.00;;;;;;5033687;28;20217;-84
2022/04/28 11:39:45;;;;;;;7.20;5.20;;;24.60;1.00;;;;;;5034223;28;20816;-86
2022/04/28 11:42:12;;;;;;;8.47;5.57;;;24.60;1.00;;;;;;5016347;28;20416;-87
2022/04/28 11:44:51;;;;;;;6.70;5.43;;;24.00;1.00;;;;;;5034187;28;20917;-86
2022/04/28 11:47:17;;;;;;;5.30;4.80;;;23.70;1.00;;;;;;5016391;28;20421;-86
2022/04/28 11:49:42;;;;;;;7.67;5.67;;;24.30;1.00;;;;;;5034154;28;20413;-86
2022/04/28 11:52:23;;;;;;;7.40;5.30;;;24.40;1.00;;;;;;5033776;28;20642;-85
2022/04/28 11:54:59;;;;;;;9.80;6.20;;;24.20;1.00;;;;;;5033911;28;20174;-87
2022/04/28 11:57:24;;;;;;;5.80;5.00;;;24.00;1.00;;;;;;5033708;28;20475;-84
2022/04/28 11:59:51;;;;;;;6.60;5.37;;;23.30;1.00;;;;;;5033845;28;20413;-88
2022/04/28 12:02:32;;;;;;;5.77;5.10;;;22.30;1.00;;;;;;5042272;28;20181;-90
2022/04/28 12:04:59;;;;;;;9.13;6.40;;;22.20;1.00;;;;;;5035696;28;20465;-89
2022/04/28 12:07:29;;;;;;;6.90;5.30;;;23.70;1.00;;;;;;5053184;28;20413;-86
2022/04/28 12:15:25;;;;;;;6.47;5.20;;;23.40;1.00;;;;;;5053207;28;20435;-86
2022/04/28 12:20:56;;;;;;;7.37;5.50;;;24.50;1.00;;;;;;5052893;28;20403;-89
2022/04/28 12:23:31;;;;;;;7.60;4.90;;;22.80;1.00;;;;;;5054388;28;20409;-93
2022/04/28 12:26:03;;;;;;;4.90;4.50;;;23.60;1.00;;;;;;5037594;28;20420;-93
2022/04/28 12:28:30;;;;;;;7.23;4.90;;;23.80;1.00;;;;;;5056053;28;20422;-93
2022/04/28 12:30:56;;;;;;;7.90;4.60;;;22.60;1.00;;;;;;5056667;28;20415;-93
2022/04/28 12:33:21;;;;;;;5.80;3.83;;;23.00;1.00;;;;;;5036116;28;20511;-89
2022/04/28 12:35:47;;;;;;;7.07;4.30;;;23.90;1.00;;;;;;5017875;28;20216;-92
2022/04/28 12:38:23;;;;;;;4.23;3.83;;;23.70;1.00;;;;;;5032976;28;20181;-89
2022/04/28 12:40:48;;;;;;;7.03;4.80;;;24.40;1.00;;;;;;5033238;28;20264;-89
2022/04/28 12:43:42;;;;;;;5.97;4.50;;;23.50;1.00;;;;;;5033380;28;20862;-90
2022/04/28 12:46:09;;;;;;;7.60;5.30;;;21.70;1.00;;;;;;5033956;28;20179;-88
2022/04/28 12:48:39;;;;;;;7.00;4.97;;;21.30;1.00;;;;;;5033869;28;20750;-90
2022/04/28 12:51:15;;;;;;;7.80;4.73;;;21.40;1.00;;;;;;5032502;28;20413;-83
2022/04/28 12:53:43;;;;;;;6.90;4.87;;;20.90;1.00;;;;;;5032451;28;20425;-83
2022/04/28 12:56:17;;;;;;;6.53;4.50;;;21.10;1.00;;;;;;5032249;28;20850;-84
2022/04/28 12:58:45;;;;;;;5.63;3.40;;;22.00;1.00;;;;;;5032573;28;21050;-82
2022/04/28 13:01:17;;;;;;;8.37;4.10;;;22.30;1.00;;;;;;5032816;28;20413;-84
2022/04/28 13:03:52;;;;;;;7.40;4.20;;;22.00;1.00;;;;;;5015033;28;20444;-82
2022/04/28 13:06:18;;;;;;;6.40;5.30;;;23.50;1.00;;;;;;5032482;28;20788;-83
2022/04/28 13:08:45;;;;;;;5.70;5.10;;;23.00;1.00;;;;;;5032680;28;20425;-84
2022/04/28 13:11:12;;;;;;;6.60;4.07;;;22.40;1.00;;;;;;5032597;28;20186;-82
2022/04/28 13:13:38;;;;;;;7.17;5.07;;;23.30;1.00;;;;;;5032602;28;20782;-82
2022/04/28 13:16:04;;;;;;;6.33;3.70;;;23.20;1.00;;;;;;5032389;28;20456;-83
2022/04/28 13:18:29;;;;;;;4.67;4.20;;;23.20;1.00;;;;;;5032966;28;20216;-83
2022/04/28 13:20:55;;;;;;;5.07;4.40;;;23.20;1.00;;;;;;5015018;28;20542;-85
2022/04/28 13:23:20;;;;;;;5.60;4.50;;;22.60;1.00;;;;;;5033100;28;20301;-84
2022/04/28 13:25:46;;;;;;;7.40;4.97;;;22.60;1.00;;;;;;5033010;28;20185;-83
2022/04/28 13:28:12;;;;;;;6.13;5.53;;;22.70;1.00;;;;;;5031934;28;20626;-83
2022/04/28 13:30:38;;;;;;;6.10;5.23;;;22.70;1.00;;;;;;5032795;28;20257;-84
2022/04/28 13:33:04;;;;;;;5.50;4.13;;;22.80;1.00;;;;;;5032767;28;20197;-83
2022/04/28 13:35:30;;;;;;;4.83;3.97;;;22.70;1.00;;;;;;5014759;28;20183;-83